Please be sure to check the latest weather conditions by clicking the link and viewing our local weather information!

Check Weather

Welcome to Lakeway Airpark (3R9)

FromTheAir

We’re a community airpark nestled within the town of Lakeway, Texas (17 miles northwest of downtown Austin).

Lakeway Airpark, Inc. was formed by Lakeway residents and interested parties to own and manage Lakeway Airpark (3R9).

The Airpark is a privately owned not for profit public use airport for residents and guests of Lakeway. No public funds are used and the airport is supported by fees and fuel sales at the airport.

Lakeway Airpark is an unmanned facility open for use from Sunrise to Sunset seven days a week. Takeoffs and landings are not permitted at night, between Sunset and Sunrise, by City Ordinance.

Quick Weather Info

Available data for KAUS from the past 2 hours
AUSTIN, TX
Metar
KAUS 220353Z 17005KT 10SM FEW025 BKN045 22/19 A2993 RMK AO2 SLP126 T02220194 $

03:53 UTC

Wind: 170° 5kt

Visibility: 10 SM

Sky: FEW 2500 ft

Temp: 22 deg C / 71.6 deg F

Dewpoint: 19 deg C / 66.2 deg F

Pressure: 29.93 inHg

TAF
KAUS 220201Z 2202/2306 16009KT P6SM BKN040 FM220600 17006KT P6SM BKN015 FM221200 18004KT 5SM BR VCSH OVC008 FM221500 35012KT 6SM SHRA BR OVC010 FM230000 35011KT P6SM SCT020
Pirep (1)
AUS UA /OV KCWK/TM 0413/FL340/TP A321/TB MOD